sensor_id;sensor_type;location;lat;lon;timestamp;P1;durP1;ratioP1;P2;durP2;ratioP2
17384;SDS011;8810;48.680;8.894;2023-03-01T00:02:21;22.10;;;9.60;;
17384;SDS011;8810;48.680;8.894;2023-03-01T00:04:49;23.90;;;9.33;;
17384;SDS011;8810;48.680;8.894;2023-03-01T00:07:16;22.80;;;10.03;;
17384;SDS011;8810;48.680;8.894;2023-03-01T00:09:43;23.77;;;9.97;;
17384;SDS011;8810;48.680;8.894;2023-03-01T00:12:10;23.43;;;9.33;;
17384;SDS011;8810;48.680;8.894;2023-03-01T00:14:38;22.80;;;10.47;;
17384;SDS011;8810;48.680;8.894;2023-03-01T00:17:05;24.67;;;9.87;;
17384;SDS011;8810;48.680;8.894;2023-03-01T00:19:32;19.43;;;8.10;;
17384;SDS011;8810;48.680;8.894;2023-03-01T00:22:00;19.33;;;9.40;;
17384;SDS011;8810;48.680;8.894;2023-03-01T00:24:27;19.53;;;8.70;;
17384;SDS011;8810;48.680;8.894;2023-03-01T00:26:54;22.73;;;10.35;;
17384;SDS011;8810;48.680;8.894;2023-03-01T00:29:21;21.23;;;9.10;;
17384;SDS011;8810;48.680;8.894;2023-03-01T00:31:49;24.00;;;9.77;;
17384;SDS011;8810;48.680;8.894;2023-03-01T00:34:15;22.57;;;8.97;;
17384;SDS011;8810;48.680;8.894;2023-03-01T00:36:42;20.40;;;8.90;;
17384;SDS011;8810;48.680;8.894;2023-03-01T00:39:12;22.10;;;9.00;;
17384;SDS011;8810;48.680;8.894;2023-03-01T00:41:40;17.83;;;8.63;;
17384;SDS011;8810;48.680;8.894;2023-03-01T00:44:07;22.80;;;9.53;;
17384;SDS011;8810;48.680;8.894;2023-03-01T00:46:34;19.50;;;9.03;;
17384;SDS011;8810;48.680;8.894;2023-03-01T00:49:01;21.83;;;9.57;;
17384;SDS011;8810;48.680;8.894;2023-03-01T00:51:29;20.93;;;9.20;;
17384;SDS011;8810;48.680;8.894;2023-03-01T00:53:58;20.37;;;9.27;;
17384;SDS011;8810;48.680;8.894;2023-03-01T00:56:28;19.93;;;9.00;;
17384;SDS011;8810;48.680;8.894;2023-03-01T00:58:55;22.23;;;9.23;;
17384;SDS011;8810;48.680;8.894;2023-03-01T01:01:23;20.47;;;8.80;;
17384;SDS011;8810;48.680;8.894;2023-03-01T01:03:53;17.87;;;8.20;;
17384;SDS011;8810;48.680;8.894;2023-03-01T01:06:21;19.23;;;8.90;;
17384;SDS011;8810;48.680;8.894;2023-03-01T01:08:49;20.90;;;9.70;;
17384;SDS011;8810;48.680;8.894;2023-03-01T01:11:17;19.03;;;8.20;;
17384;SDS011;8810;48.680;8.894;2023-03-01T01:13:45;25.83;;;9.07;;
17384;SDS011;8810;48.680;8.894;2023-03-01T01:16:13;19.67;;;8.27;;
17384;SDS011;8810;48.680;8.894;2023-03-01T01:18:40;22.23;;;9.10;;
17384;SDS011;8810;48.680;8.894;2023-03-01T01:21:08;19.10;;;8.80;;
17384;SDS011;8810;48.680;8.894;2023-03-01T01:23:36;21.67;;;9.27;;
17384;SDS011;8810;48.680;8.894;2023-03-01T01:26:04;17.47;;;8.37;;
17384;SDS011;8810;48.680;8.894;2023-03-01T01:28:32;21.70;;;9.43;;
17384;SDS011;8810;48.680;8.894;2023-03-01T01:31:01;21.77;;;9.23;;
17384;SDS011;8810;48.680;8.894;2023-03-01T01:33:28;25.17;;;9.83;;
17384;SDS011;8810;48.680;8.894;2023-03-01T01:35:55;19.33;;;8.53;;
17384;SDS011;8810;48.680;8.894;2023-03-01T01:38:22;21.23;;;9.87;;
17384;SDS011;8810;48.680;8.894;2023-03-01T01:40:49;20.13;;;8.77;;
17384;SDS011;8810;48.680;8.894;2023-03-01T01:43:20;18.87;;;9.13;;
17384;SDS011;8810;48.680;8.894;2023-03-01T01:45:48;21.30;;;8.30;;
17384;SDS011;8810;48.680;8.894;2023-03-01T01:48:18;18.83;;;8.97;;
17384;SDS011;8810;48.680;8.894;2023-03-01T01:50:48;19.33;;;9.20;;
17384;SDS011;8810;48.680;8.894;2023-03-01T01:53:21;21.37;;;8.63;;
17384;SDS011;8810;48.680;8.894;2023-03-01T01:55:49;21.03;;;8.93;;
17384;SDS011;8810;48.680;8.894;2023-03-01T01:58:22;21.90;;;9.37;;
17384;SDS011;8810;48.680;8.894;2023-03-01T02:00:52;19.47;;;9.23;;
17384;SDS011;8810;48.680;8.894;2023-03-01T02:03:23;27.23;;;10.27;;
17384;SDS011;8810;48.680;8.894;2023-03-01T02:05:55;20.40;;;9.30;;
17384;SDS011;8810;48.680;8.894;2023-03-01T02:08:27;21.57;;;9.33;;
17384;SDS011;8810;48.680;8.894;2023-03-01T02:10:56;19.63;;;8.57;;
17384;SDS011;8810;48.680;8.894;2023-03-01T02:13:24;22.40;;;9.20;;
17384;SDS011;8810;48.680;8.894;2023-03-01T02:15:51;20.90;;;9.37;;
17384;SDS011;8810;48.680;8.894;2023-03-01T02:18:18;21.60;;;9.17;;
17384;SDS011;8810;48.680;8.894;2023-03-01T02:20:52;19.87;;;9.67;;
17384;SDS011;8810;48.680;8.894;2023-03-01T02:23:34;17.70;;;9.03;;
17384;SDS011;8810;48.680;8.894;2023-03-01T02:26:04;18.73;;;8.23;;
17384;SDS011;8810;48.680;8.894;2023-03-01T02:28:35;16.93;;;7.97;;
17384;SDS011;8810;48.680;8.894;2023-03-01T02:31:03;19.00;;;8.93;;
17384;SDS011;8810;48.680;8.894;2023-03-01T02:33:49;17.50;;;8.53;;
17384;SDS011;8810;48.680;8.894;2023-03-01T02:36:18;20.97;;;8.70;;
17384;SDS011;8810;48.680;8.894;2023-03-01T02:38:48;23.37;;;10.17;;
17384;SDS011;8810;48.680;8.894;2023-03-01T02:41:18;19.23;;;8.87;;
17384;SDS011;8810;48.680;8.894;2023-03-01T02:43:48;16.33;;;7.73;;
17384;SDS011;8810;48.680;8.894;2023-03-01T02:46:16;20.77;;;8.73;;
17384;SDS011;8810;48.680;8.894;2023-03-01T02:48:45;19.97;;;8.73;;
17384;SDS011;8810;48.680;8.894;2023-03-01T02:54:15;20.57;;;8.60;;
17384;SDS011;8810;48.680;8.894;2023-03-01T02:56:46;16.67;;;8.27;;
17384;SDS011;8810;48.680;8.894;2023-03-01T02:59:15;21.07;;;8.50;;
17384;SDS011;8810;48.680;8.894;2023-03-01T03:01:44;18.00;;;8.40;;
17384;SDS011;8810;48.680;8.894;2023-03-01T03:04:13;22.80;;;9.20;;
17384;SDS011;8810;48.680;8.894;2023-03-01T03:06:42;15.63;;;8.23;;
17384;SDS011;8810;48.680;8.894;2023-03-01T03:09:10;19.70;;;8.93;;
17384;SDS011;8810;48.680;8.894;2023-03-01T03:11:37;20.43;;;8.97;;
17384;SDS011;8810;48.680;8.894;2023-03-01T03:14:06;19.30;;;8.30;;
17384;SDS011;8810;48.680;8.894;2023-03-01T03:16:38;19.03;;;8.57;;
17384;SDS011;8810;48.680;8.894;2023-03-01T03:19:06;21.13;;;8.97;;
17384;SDS011;8810;48.680;8.894;2023-03-01T03:21:33;17.70;;;8.70;;
17384;SDS011;8810;48.680;8.894;2023-03-01T03:24:00;22.37;;;9.90;;
17384;SDS011;8810;48.680;8.894;2023-03-01T03:26:27;19.00;;;9.43;;
17384;SDS011;8810;48.680;8.894;2023-03-01T03:28:55;20.43;;;10.00;;
17384;SDS011;8810;48.680;8.894;2023-03-01T03:31:22;20.73;;;8.50;;
17384;SDS011;8810;48.680;8.894;2023-03-01T03:33:50;21.07;;;10.30;;
17384;SDS011;8810;48.680;8.894;2023-03-01T03:36:17;23.63;;;9.53;;
17384;SDS011;8810;48.680;8.894;2023-03-01T03:38:44;20.90;;;10.23;;
17384;SDS011;8810;48.680;8.894;2023-03-01T03:41:12;20.50;;;10.10;;
17384;SDS011;8810;48.680;8.894;2023-03-01T03:43:39;25.27;;;10.47;;
17384;SDS011;8810;48.680;8.894;2023-03-01T03:46:08;18.17;;;9.07;;
17384;SDS011;8810;48.680;8.894;2023-03-01T03:48:36;18.70;;;9.27;;
17384;SDS011;8810;48.680;8.894;2023-03-01T03:51:06;19.90;;;9.57;;
17384;SDS011;8810;48.680;8.894;2023-03-01T03:53:35;19.17;;;9.13;;
17384;SDS011;8810;48.680;8.894;2023-03-01T03:56:02;26.80;;;10.00;;
17384;SDS011;8810;48.680;8.894;2023-03-01T03:58:29;21.30;;;9.80;;
17384;SDS011;8810;48.680;8.894;2023-03-01T04:00:57;19.93;;;9.43;;
17384;SDS011;8810;48.680;8.894;2023-03-01T04:03:26;21.03;;;10.03;;
17384;SDS011;8810;48.680;8.894;2023-03-01T04:05:53;20.03;;;8.50;;
17384;SDS011;8810;48.680;8.894;2023-03-01T04:08:22;19.77;;;9.47;;
17384;SDS011;8810;48.680;8.894;2023-03-01T04:10:50;19.40;;;9.03;;
17384;SDS011;8810;48.680;8.894;2023-03-01T04:13:18;22.17;;;10.50;;
17384;SDS011;8810;48.680;8.894;2023-03-01T04:15:48;22.90;;;10.00;;
17384;SDS011;8810;48.680;8.894;2023-03-01T04:18:16;23.23;;;9.80;;
17384;SDS011;8810;48.680;8.894;2023-03-01T04:20:44;20.87;;;9.90;;
17384;SDS011;8810;48.680;8.894;2023-03-01T04:23:11;18.50;;;9.03;;
17384;SDS011;8810;48.680;8.894;2023-03-01T04:25:44;20.40;;;9.50;;
17384;SDS011;8810;48.680;8.894;2023-03-01T04:28:14;21.90;;;9.97;;
17384;SDS011;8810;48.680;8.894;2023-03-01T04:30:42;22.77;;;10.97;;
17384;SDS011;8810;48.680;8.894;2023-03-01T04:33:09;22.80;;;10.07;;
17384;SDS011;8810;48.680;8.894;2023-03-01T04:35:36;24.33;;;10.17;;
17384;SDS011;8810;48.680;8.894;2023-03-01T04:38:05;21.87;;;10.23;;
17384;SDS011;8810;48.680;8.894;2023-03-01T04:40:32;22.53;;;10.63;;
17384;SDS011;8810;48.680;8.894;2023-03-01T04:43:01;15.93;;;8.97;;
17384;SDS011;8810;48.680;8.894;2023-03-01T04:45:29;23.00;;;11.10;;
17384;SDS011;8810;48.680;8.894;2023-03-01T04:47:55;23.40;;;9.73;;
17384;SDS011;8810;48.680;8.894;2023-03-01T04:50:23;24.27;;;10.07;;
17384;SDS011;8810;48.680;8.894;2023-03-01T04:52:50;22.43;;;10.20;;
17384;SDS011;8810;48.680;8.894;2023-03-01T04:55:17;20.83;;;10.60;;
17384;SDS011;8810;48.680;8.894;2023-03-01T04:57:44;22.83;;;9.93;;
17384;SDS011;8810;48.680;8.894;2023-03-01T05:00:14;24.67;;;11.30;;
17384;SDS011;8810;48.680;8.894;2023-03-01T05:02:47;21.67;;;10.57;;
17384;SDS011;8810;48.680;8.894;2023-03-01T05:05:18;24.97;;;11.03;;
17384;SDS011;8810;48.680;8.894;2023-03-01T05:07:46;21.83;;;10.67;;
17384;SDS011;8810;48.680;8.894;2023-03-01T05:10:13;25.63;;;11.73;;
17384;SDS011;8810;48.680;8.894;2023-03-01T05:12:41;23.70;;;11.07;;
17384;SDS011;8810;48.680;8.894;2023-03-01T05:15:08;23.77;;;10.93;;
17384;SDS011;8810;48.680;8.894;2023-03-01T05:17:37;22.20;;;11.13;;
17384;SDS011;8810;48.680;8.894;2023-03-01T05:20:04;22.57;;;11.77;;
17384;SDS011;8810;48.680;8.894;2023-03-01T05:22:33;25.10;;;11.23;;
17384;SDS011;8810;48.680;8.894;2023-03-01T05:25:00;40.47;;;16.97;;
17384;SDS011;8810;48.680;8.894;2023-03-01T05:27:27;41.93;;;17.40;;
17384;SDS011;8810;48.680;8.894;2023-03-01T05:29:54;29.00;;;13.00;;
17384;SDS011;8810;48.680;8.894;2023-03-01T05:32:21;23.93;;;11.33;;
17384;SDS011;8810;48.680;8.894;2023-03-01T05:34:49;23.20;;;10.90;;
17384;SDS011;8810;48.680;8.894;2023-03-01T05:37:17;21.27;;;10.90;;
17384;SDS011;8810;48.680;8.894;2023-03-01T05:39:44;25.57;;;11.93;;
17384;SDS011;8810;48.680;8.894;2023-03-01T05:42:11;22.97;;;11.23;;
17384;SDS011;8810;48.680;8.894;2023-03-01T05:44:38;21.70;;;10.57;;
17384;SDS011;8810;48.680;8.894;2023-03-01T05:47:05;25.57;;;12.20;;
17384;SDS011;8810;48.680;8.894;2023-03-01T05:49:32;26.67;;;11.63;;
17384;SDS011;8810;48.680;8.894;2023-03-01T05:52:01;27.80;;;12.03;;
17384;SDS011;8810;48.680;8.894;2023-03-01T05:54:27;25.87;;;11.50;;
17384;SDS011;8810;48.680;8.894;2023-03-01T05:56:54;25.97;;;11.73;;
17384;SDS011;8810;48.680;8.894;2023-03-01T05:59:22;25.53;;;12.03;;
17384;SDS011;8810;48.680;8.894;2023-03-01T06:01:48;23.23;;;11.73;;
17384;SDS011;8810;48.680;8.894;2023-03-01T06:04:15;29.10;;;11.67;;
17384;SDS011;8810;48.680;8.894;2023-03-01T06:06:42;23.47;;;11.47;;
17384;SDS011;8810;48.680;8.894;2023-03-01T06:09:10;23.57;;;11.90;;
17384;SDS011;8810;48.680;8.894;2023-03-01T06:11:37;26.40;;;12.47;;
17384;SDS011;8810;48.680;8.894;2023-03-01T06:14:05;26.70;;;11.37;;
17384;SDS011;8810;48.680;8.894;2023-03-01T06:16:33;22.47;;;11.10;;
17384;SDS011;8810;48.680;8.894;2023-03-01T06:19:00;23.43;;;11.00;;
17384;SDS011;8810;48.680;8.894;2023-03-01T06:21:27;21.97;;;11.00;;
17384;SDS011;8810;48.680;8.894;2023-03-01T06:23:56;22.47;;;11.00;;
17384;SDS011;8810;48.680;8.894;2023-03-01T06:26:25;26.00;;;12.30;;
17384;SDS011;8810;48.680;8.894;2023-03-01T06:28:51;25.17;;;11.80;;
17384;SDS011;8810;48.680;8.894;2023-03-01T06:31:18;24.27;;;11.60;;
17384;SDS011;8810;48.680;8.894;2023-03-01T06:33:45;22.77;;;11.80;;
17384;SDS011;8810;48.680;8.894;2023-03-01T06:36:12;25.17;;;12.33;;
17384;SDS011;8810;48.680;8.894;2023-03-01T06:38:39;24.03;;;11.60;;
17384;SDS011;8810;48.680;8.894;2023-03-01T06:41:06;23.47;;;11.10;;
17384;SDS011;8810;48.680;8.894;2023-03-01T06:43:34;25.70;;;11.67;;
17384;SDS011;8810;48.680;8.894;2023-03-01T06:46:03;28.03;;;12.97;;
17384;SDS011;8810;48.680;8.894;2023-03-01T06:48:31;24.67;;;11.50;;
17384;SDS011;8810;48.680;8.894;2023-03-01T06:50:58;24.97;;;11.77;;
17384;SDS011;8810;48.680;8.894;2023-03-01T06:53:25;28.23;;;12.87;;
17384;SDS011;8810;48.680;8.894;2023-03-01T06:55:53;23.60;;;11.23;;
17384;SDS011;8810;48.680;8.894;2023-03-01T06:58:21;25.93;;;12.17;;
17384;SDS011;8810;48.680;8.894;2023-03-01T07:00:49;23.97;;;11.53;;
17384;SDS011;8810;48.680;8.894;2023-03-01T07:03:16;26.30;;;11.73;;
17384;SDS011;8810;48.680;8.894;2023-03-01T07:05:43;27.07;;;12.30;;
17384;SDS011;8810;48.680;8.894;2023-03-01T07:08:10;30.23;;;11.90;;
17384;SDS011;8810;48.680;8.894;2023-03-01T07:10:37;29.47;;;12.30;;
17384;SDS011;8810;48.680;8.894;2023-03-01T07:13:04;25.40;;;12.47;;
17384;SDS011;8810;48.680;8.894;2023-03-01T07:15:32;25.83;;;12.90;;
17384;SDS011;8810;48.680;8.894;2023-03-01T07:18:00;29.37;;;11.23;;
17384;SDS011;8810;48.680;8.894;2023-03-01T07:20:27;27.00;;;12.10;;
17384;SDS011;8810;48.680;8.894;2023-03-01T07:22:55;27.07;;;11.90;;
17384;SDS011;8810;48.680;8.894;2023-03-01T07:25:23;22.33;;;11.63;;
17384;SDS011;8810;48.680;8.894;2023-03-01T07:27:50;23.50;;;11.87;;
17384;SDS011;8810;48.680;8.894;2023-03-01T07:30:18;24.77;;;11.13;;
17384;SDS011;8810;48.680;8.894;2023-03-01T07:32:45;36.67;;;14.77;;
17384;SDS011;8810;48.680;8.894;2023-03-01T07:35:14;49.20;;;13.30;;
17384;SDS011;8810;48.680;8.894;2023-03-01T07:37:41;43.63;;;13.77;;
17384;SDS011;8810;48.680;8.894;2023-03-01T07:40:08;54.80;;;13.83;;
17384;SDS011;8810;48.680;8.894;2023-03-01T07:42:36;27.57;;;12.10;;
17384;SDS011;8810;48.680;8.894;2023-03-01T07:45:03;51.60;;;12.80;;
17384;SDS011;8810;48.680;8.894;2023-03-01T07:47:31;43.57;;;12.87;;
17384;SDS011;8810;48.680;8.894;2023-03-01T07:49:58;49.13;;;13.03;;
17384;SDS011;8810;48.680;8.894;2023-03-01T07:52:27;32.07;;;12.13;;
17384;SDS011;8810;48.680;8.894;2023-03-01T07:54:54;32.40;;;12.03;;
17384;SDS011;8810;48.680;8.894;2023-03-01T07:57:21;23.67;;;10.77;;
17384;SDS011;8810;48.680;8.894;2023-03-01T07:59:48;25.33;;;12.30;;
17384;SDS011;8810;48.680;8.894;2023-03-01T08:02:15;23.17;;;11.70;;
17384;SDS011;8810;48.680;8.894;2023-03-01T08:04:42;22.43;;;11.47;;
17384;SDS011;8810;48.680;8.894;2023-03-01T08:07:09;23.43;;;11.93;;
17384;SDS011;8810;48.680;8.894;2023-03-01T08:09:37;25.00;;;12.17;;
17384;SDS011;8810;48.680;8.894;2023-03-01T08:12:04;20.87;;;11.03;;
17384;SDS011;8810;48.680;8.894;2023-03-01T08:14:31;22.30;;;12.10;;
17384;SDS011;8810;48.680;8.894;2023-03-01T08:16:58;20.50;;;11.70;;
17384;SDS011;8810;48.680;8.894;2023-03-01T08:19:27;21.27;;;11.23;;
17384;SDS011;8810;48.680;8.894;2023-03-01T08:21:55;22.97;;;11.43;;
17384;SDS011;8810;48.680;8.894;2023-03-01T08:24:23;22.83;;;11.93;;
17384;SDS011;8810;48.680;8.894;2023-03-01T08:26:51;23.73;;;11.93;;
17384;SDS011;8810;48.680;8.894;2023-03-01T08:29:19;20.13;;;11.20;;
17384;SDS011;8810;48.680;8.894;2023-03-01T08:31:45;28.47;;;12.43;;
17384;SDS011;8810;48.680;8.894;2023-03-01T08:34:14;39.97;;;12.90;;
17384;SDS011;8810;48.680;8.894;2023-03-01T08:36:42;47.97;;;13.83;;
17384;SDS011;8810;48.680;8.894;2023-03-01T08:39:11;74.27;;;15.60;;
17384;SDS011;8810;48.680;8.894;2023-03-01T08:41:40;31.63;;;13.63;;
17384;SDS011;8810;48.680;8.894;2023-03-01T08:44:10;30.17;;;13.00;;
17384;SDS011;8810;48.680;8.894;2023-03-01T08:46:38;24.30;;;13.17;;
17384;SDS011;8810;48.680;8.894;2023-03-01T08:49:06;27.10;;;14.33;;
17384;SDS011;8810;48.680;8.894;2023-03-01T08:51:34;25.63;;;12.93;;
17384;SDS011;8810;48.680;8.894;2023-03-01T08:54:02;26.53;;;13.17;;
17384;SDS011;8810;48.680;8.894;2023-03-01T08:56:30;20.03;;;11.50;;
17384;SDS011;8810;48.680;8.894;2023-03-01T08:58:57;25.13;;;12.57;;
17384;SDS011;8810;48.680;8.894;2023-03-01T09:01:25;28.67;;;11.83;;
17384;SDS011;8810;48.680;8.894;2023-03-01T09:03:52;22.67;;;12.37;;
17384;SDS011;8810;48.680;8.894;2023-03-01T09:06:19;23.37;;;11.90;;
17384;SDS011;8810;48.680;8.894;2023-03-01T09:08:47;23.53;;;12.13;;
17384;SDS011;8810;48.680;8.894;2023-03-01T09:11:16;20.97;;;12.43;;
17384;SDS011;8810;48.680;8.894;2023-03-01T09:13:45;31.37;;;12.83;;
17384;SDS011;8810;48.680;8.894;2023-03-01T09:16:14;22.10;;;12.73;;
17384;SDS011;8810;48.680;8.894;2023-03-01T09:18:43;23.00;;;13.07;;
17384;SDS011;8810;48.680;8.894;2023-03-01T09:21:11;20.77;;;11.93;;
17384;SDS011;8810;48.680;8.894;2023-03-01T09:23:40;24.13;;;13.10;;
17384;SDS011;8810;48.680;8.894;2023-03-01T09:26:08;23.07;;;12.73;;
17384;SDS011;8810;48.680;8.894;2023-03-01T09:28:39;23.40;;;12.53;;
17384;SDS011;8810;48.680;8.894;2023-03-01T09:31:06;20.80;;;11.93;;
17384;SDS011;8810;48.680;8.894;2023-03-01T09:33:33;22.20;;;11.83;;
17384;SDS011;8810;48.680;8.894;2023-03-01T09:36:02;21.90;;;12.43;;
17384;SDS011;8810;48.680;8.894;2023-03-01T09:38:32;20.27;;;11.33;;
17384;SDS011;8810;48.680;8.894;2023-03-01T09:40:59;27.27;;;13.43;;
17384;SDS011;8810;48.680;8.894;2023-03-01T09:43:29;28.70;;;13.47;;
17384;SDS011;8810;48.680;8.894;2023-03-01T09:46:04;22.07;;;12.30;;
17384;SDS011;8810;48.680;8.894;2023-03-01T09:48:37;22.30;;;11.70;;
17384;SDS011;8810;48.680;8.894;2023-03-01T09:51:12;27.87;;;12.50;;
17384;SDS011;8810;48.680;8.894;2023-03-01T09:53:44;24.13;;;12.57;;
17384;SDS011;8810;48.680;8.894;2023-03-01T09:56:12;23.20;;;13.13;;
17384;SDS011;8810;48.680;8.894;2023-03-01T09:58:47;27.30;;;13.20;;
17384;SDS011;8810;48.680;8.894;2023-03-01T10:01:27;25.13;;;12.73;;
17384;SDS011;8810;48.680;8.894;2023-03-01T10:04:11;27.47;;;13.10;;
17384;SDS011;8810;48.680;8.894;2023-03-01T10:06:51;24.43;;;12.57;;
17384;SDS011;8810;48.680;8.894;2023-03-01T10:09:32;22.93;;;11.73;;
17384;SDS011;8810;48.680;8.894;2023-03-01T10:12:00;32.40;;;12.80;;
17384;SDS011;8810;48.680;8.894;2023-03-01T10:14:32;24.00;;;13.83;;
17384;SDS011;8810;48.680;8.894;2023-03-01T10:17:03;23.73;;;11.87;;
17384;SDS011;8810;48.680;8.894;2023-03-01T10:19:36;21.87;;;12.30;;
17384;SDS011;8810;48.680;8.894;2023-03-01T10:22:11;24.73;;;12.33;;
17384;SDS011;8810;48.680;8.894;2023-03-01T10:24:41;22.37;;;11.93;;
17384;SDS011;8810;48.680;8.894;2023-03-01T10:27:11;23.23;;;12.10;;
17384;SDS011;8810;48.680;8.894;2023-03-01T10:29:46;20.10;;;12.07;;
17384;SDS011;8810;48.680;8.894;2023-03-01T10:32:17;22.17;;;12.47;;
17384;SDS011;8810;48.680;8.894;2023-03-01T10:34:47;25.63;;;12.63;;
17384;SDS011;8810;48.680;8.894;2023-03-01T10:37:16;21.60;;;12.13;;
17384;SDS011;8810;48.680;8.894;2023-03-01T10:39:57;22.40;;;12.23;;
17384;SDS011;8810;48.680;8.894;2023-03-01T10:42:28;19.50;;;12.17;;
17384;SDS011;8810;48.680;8.894;2023-03-01T10:44:57;22.67;;;13.17;;
17384;SDS011;8810;48.680;8.894;2023-03-01T10:47:40;25.10;;;13.17;;
17384;SDS011;8810;48.680;8.894;2023-03-01T10:50:09;22.13;;;13.43;;
17384;SDS011;8810;48.680;8.894;2023-03-01T10:52:56;21.77;;;12.30;;
17384;SDS011;8810;48.680;8.894;2023-03-01T10:55:26;22.10;;;13.03;;
17384;SDS011;8810;48.680;8.894;2023-03-01T10:58:07;26.30;;;13.03;;
17384;SDS011;8810;48.680;8.894;2023-03-01T11:00:46;21.57;;;12.43;;
17384;SDS011;8810;48.680;8.894;2023-03-01T11:03:17;20.80;;;12.53;;
17384;SDS011;8810;48.680;8.894;2023-03-01T11:05:50;26.23;;;13.20;;
17384;SDS011;8810;48.680;8.894;2023-03-01T11:08:37;20.47;;;12.63;;
17384;SDS011;8810;48.680;8.894;2023-03-01T11:11:11;23.27;;;13.07;;
17384;SDS011;8810;48.680;8.894;2023-03-01T11:13:53;21.07;;;12.13;;
17384;SDS011;8810;48.680;8.894;2023-03-01T11:16:26;21.20;;;13.17;;
17384;SDS011;8810;48.680;8.894;2023-03-01T11:18:56;24.50;;;13.03;;
17384;SDS011;8810;48.680;8.894;2023-03-01T11:21:24;23.87;;;13.63;;
17384;SDS011;8810;48.680;8.894;2023-03-01T11:23:55;20.53;;;12.53;;
17384;SDS011;8810;48.680;8.894;2023-03-01T11:26:24;21.63;;;12.37;;
17384;SDS011;8810;48.680;8.894;2023-03-01T11:28:51;21.97;;;12.77;;
17384;SDS011;8810;48.680;8.894;2023-03-01T11:31:23;22.63;;;12.93;;
17384;SDS011;8810;48.680;8.894;2023-03-01T11:33:53;21.00;;;12.27;;
17384;SDS011;8810;48.680;8.894;2023-03-01T11:36:24;21.90;;;12.53;;
17384;SDS011;8810;48.680;8.894;2023-03-01T11:38:58;19.90;;;11.83;;
17384;SDS011;8810;48.680;8.894;2023-03-01T11:41:31;19.80;;;12.50;;
17384;SDS011;8810;48.680;8.894;2023-03-01T11:44:03;20.97;;;11.63;;
17384;SDS011;8810;48.680;8.894;2023-03-01T11:46:43;18.83;;;11.93;;
17384;SDS011;8810;48.680;8.894;2023-03-01T11:49:23;27.97;;;12.80;;
17384;SDS011;8810;48.680;8.894;2023-03-01T11:52:14;20.87;;;11.77;;
17384;SDS011;8810;48.680;8.894;2023-03-01T11:54:55;18.03;;;11.50;;
17384;SDS011;8810;48.680;8.894;2023-03-01T11:57:43;18.70;;;11.67;;
17384;SDS011;8810;48.680;8.894;2023-03-01T12:00:26;19.53;;;12.23;;
17384;SDS011;8810;48.680;8.894;2023-03-01T12:03:23;23.30;;;12.07;;
17384;SDS011;8810;48.680;8.894;2023-03-01T12:06:07;20.10;;;11.83;;
17384;SDS011;8810;48.680;8.894;2023-03-01T12:08:49;20.97;;;11.73;;
17384;SDS011;8810;48.680;8.894;2023-03-01T12:11:39;22.20;;;12.07;;
17384;SDS011;8810;48.680;8.894;2023-03-01T12:14:22;21.07;;;11.60;;
17384;SDS011;8810;48.680;8.894;2023-03-01T12:17:11;20.83;;;12.67;;
17384;SDS011;8810;48.680;8.894;2023-03-01T12:20:02;21.07;;;11.87;;
17384;SDS011;8810;48.680;8.894;2023-03-01T12:22:41;21.03;;;12.80;;
17384;SDS011;8810;48.680;8.894;2023-03-01T12:25:20;18.90;;;11.03;;
17384;SDS011;8810;48.680;8.894;2023-03-01T12:31:12;20.10;;;11.63;;
17384;SDS011;8810;48.680;8.894;2023-03-01T12:33:59;19.30;;;11.40;;
17384;SDS011;8810;48.680;8.894;2023-03-01T12:36:44;20.90;;;12.20;;
17384;SDS011;8810;48.680;8.894;2023-03-01T12:39:23;21.37;;;11.33;;
17384;SDS011;8810;48.680;8.894;2023-03-01T12:42:04;18.23;;;11.43;;
17384;SDS011;8810;48.680;8.894;2023-03-01T12:44:45;22.70;;;12.47;;
17384;SDS011;8810;48.680;8.894;2023-03-01T12:50:19;19.30;;;11.87;;
17384;SDS011;8810;48.680;8.894;2023-03-01T12:52:50;18.20;;;10.60;;
17384;SDS011;8810;48.680;8.894;2023-03-01T12:55:23;21.73;;;12.40;;
17384;SDS011;8810;48.680;8.894;2023-03-01T12:57:57;18.60;;;11.57;;
17384;SDS011;8810;48.680;8.894;2023-03-01T13:00:35;18.67;;;11.10;;
17384;SDS011;8810;48.680;8.894;2023-03-01T13:03:10;17.90;;;11.27;;
17384;SDS011;8810;48.680;8.894;2023-03-01T13:05:48;20.00;;;12.10;;
17384;SDS011;8810;48.680;8.894;2023-03-01T13:08:29;21.13;;;11.67;;
17384;SDS011;8810;48.680;8.894;2023-03-01T13:11:03;18.83;;;11.63;;
17384;SDS011;8810;48.680;8.894;2023-03-01T13:13:31;17.93;;;12.00;;
17384;SDS011;8810;48.680;8.894;2023-03-01T13:16:11;18.50;;;12.10;;
17384;SDS011;8810;48.680;8.894;2023-03-01T13:19:08;20.57;;;12.50;;
17384;SDS011;8810;48.680;8.894;2023-03-01T13:21:39;18.77;;;11.27;;
17384;SDS011;8810;48.680;8.894;2023-03-01T13:29:54;19.43;;;12.17;;
17384;SDS011;8810;48.680;8.894;2023-03-01T13:32:26;25.27;;;12.87;;
17384;SDS011;8810;48.680;8.894;2023-03-01T13:34:55;17.90;;;11.60;;
17384;SDS011;8810;48.680;8.894;2023-03-01T13:37:27;25.77;;;12.53;;
17384;SDS011;8810;48.680;8.894;2023-03-01T13:40:00;21.93;;;12.87;;
17384;SDS011;8810;48.680;8.894;2023-03-01T13:42:31;19.40;;;11.30;;
17384;SDS011;8810;48.680;8.894;2023-03-01T13:45:12;20.17;;;12.17;;
17384;SDS011;8810;48.680;8.894;2023-03-01T13:47:45;22.37;;;11.40;;
17384;SDS011;8810;48.680;8.894;2023-03-01T13:50:18;19.93;;;11.67;;
17384;SDS011;8810;48.680;8.894;2023-03-01T13:52:50;20.13;;;12.40;;
17384;SDS011;8810;48.680;8.894;2023-03-01T13:55:23;21.67;;;12.53;;
17384;SDS011;8810;48.680;8.894;2023-03-01T13:57:54;20.17;;;12.00;;
17384;SDS011;8810;48.680;8.894;2023-03-01T14:00:27;16.93;;;10.87;;
17384;SDS011;8810;48.680;8.894;2023-03-01T14:03:04;22.13;;;11.53;;
17384;SDS011;8810;48.680;8.894;2023-03-01T14:05:36;23.27;;;12.13;;
17384;SDS011;8810;48.680;8.894;2023-03-01T14:08:04;23.37;;;12.93;;
17384;SDS011;8810;48.680;8.894;2023-03-01T14:10:35;20.93;;;11.70;;
17384;SDS011;8810;48.680;8.894;2023-03-01T14:13:17;18.83;;;11.77;;
17384;SDS011;8810;48.680;8.894;2023-03-01T14:16:01;18.97;;;12.10;;
17384;SDS011;8810;48.680;8.894;2023-03-01T14:18:41;24.47;;;12.27;;
17384;SDS011;8810;48.680;8.894;2023-03-01T14:21:14;18.80;;;11.13;;
17384;SDS011;8810;48.680;8.894;2023-03-01T14:23:42;19.73;;;11.70;;
17384;SDS011;8810;48.680;8.894;2023-03-01T14:26:09;20.80;;;11.57;;
17384;SDS011;8810;48.680;8.894;2023-03-01T14:34:00;22.50;;;12.87;;
17384;SDS011;8810;48.680;8.894;2023-03-01T14:36:28;19.63;;;12.40;;
17384;SDS011;8810;48.680;8.894;2023-03-01T14:38:56;22.47;;;13.67;;
17384;SDS011;8810;48.680;8.894;2023-03-01T14:41:30;20.40;;;12.13;;
17384;SDS011;8810;48.680;8.894;2023-03-01T14:43:59;22.37;;;13.27;;
17384;SDS011;8810;48.680;8.894;2023-03-01T14:46:28;19.67;;;12.17;;
17384;SDS011;8810;48.680;8.894;2023-03-01T14:49:03;19.90;;;12.37;;
17384;SDS011;8810;48.680;8.894;2023-03-01T14:51:34;27.13;;;12.77;;
17384;SDS011;8810;48.680;8.894;2023-03-01T14:54:03;23.53;;;12.23;;
17384;SDS011;8810;48.680;8.894;2023-03-01T14:56:43;21.03;;;12.17;;
17384;SDS011;8810;48.680;8.894;2023-03-01T14:59:11;19.20;;;11.80;;
17384;SDS011;8810;48.680;8.894;2023-03-01T15:01:39;17.87;;;11.43;;
17384;SDS011;8810;48.680;8.894;2023-03-01T15:04:10;19.63;;;12.33;;
17384;SDS011;8810;48.680;8.894;2023-03-01T15:06:39;22.83;;;12.03;;
17384;SDS011;8810;48.680;8.894;2023-03-01T15:09:06;24.37;;;12.33;;
17384;SDS011;8810;48.680;8.894;2023-03-01T15:11:38;23.53;;;12.43;;
17384;SDS011;8810;48.680;8.894;2023-03-01T15:16:54;22.17;;;12.10;;
17384;SDS011;8810;48.680;8.894;2023-03-01T15:19:23;20.77;;;12.33;;
17384;SDS011;8810;48.680;8.894;2023-03-01T15:21:54;18.37;;;11.60;;